createdAt,value
2019-04-30T00:01:39.257Z,1.33
2019-04-30T00:04:29.891Z,1.30
2019-04-30T00:06:59.202Z,1.20
2019-04-30T00:09:28.738Z,2.07
2019-04-30T00:12:01.236Z,0.60
2019-04-30T00:14:36.822Z,0.70
2019-04-30T00:17:00.233Z,0.97
2019-04-30T00:19:29.573Z,1.00
2019-04-30T00:22:00.501Z,5.30
2019-04-30T00:24:30.255Z,1.00
2019-04-30T00:26:59.745Z,1.20
2019-04-30T00:29:31.058Z,0.90
2019-04-30T00:32:04.530Z,0.80
2019-04-30T00:34:35.245Z,1.27
2019-04-30T00:37:07.267Z,2.00
2019-04-30T00:39:36.185Z,0.90
2019-04-30T00:42:05.615Z,1.00
2019-04-30T00:44:35.645Z,2.07
2019-04-30T00:47:08.254Z,1.00
2019-04-30T00:49:37.707Z,0.97
2019-04-30T00:52:07.085Z,1.07
2019-04-30T00:54:36.409Z,0.90
2019-04-30T00:57:07.640Z,0.80
2019-04-30T00:59:39.732Z,1.23
2019-04-30T01:02:32.247Z,0.97
2019-04-30T01:05:05.185Z,0.90
2019-04-30T01:07:33.070Z,0.93
2019-04-30T01:10:05.103Z,1.03
2019-04-30T01:12:41.049Z,0.73
2019-04-30T01:15:10.336Z,0.70
2019-04-30T01:17:38.266Z,0.93
2019-04-30T01:20:09.385Z,1.73
2019-04-30T01:22:38.942Z,0.73
2019-04-30T01:25:13.310Z,0.60
2019-04-30T01:27:45.861Z,0.60
2019-04-30T01:30:13.283Z,1.03
2019-04-30T01:32:42.229Z,0.70
2019-04-30T01:35:11.637Z,0.83
2019-04-30T01:37:40.943Z,0.70
2019-04-30T01:40:13.567Z,0.70
2019-04-30T01:42:48.069Z,1.00
2019-04-30T01:45:13.501Z,1.00
2019-04-30T01:47:42.907Z,0.90
2019-04-30T01:50:12.546Z,0.60
2019-04-30T01:52:53.870Z,0.40
2019-04-30T01:55:43.861Z,0.80
2019-04-30T01:58:49.059Z,0.77
2019-04-30T02:01:20.934Z,1.37
2019-04-30T02:03:50.380Z,0.50
2019-04-30T02:06:19.812Z,0.57
2019-04-30T02:08:49.423Z,0.63
2019-04-30T02:11:19.056Z,0.60
2019-04-30T02:13:49.264Z,0.50
2019-04-30T02:16:21.003Z,0.73
2019-04-30T02:18:49.809Z,0.40
2019-04-30T02:21:19.634Z,0.60
2019-04-30T02:23:49.431Z,0.70
2019-04-30T02:26:18.957Z,0.40
2019-04-30T02:28:49.534Z,0.70
2019-04-30T02:31:22.705Z,0.47
2019-04-30T02:33:52.869Z,0.60
2019-04-30T02:36:41.258Z,0.70
2019-04-30T02:39:11.263Z,0.60
2019-04-30T02:41:41.553Z,0.40
2019-04-30T02:44:13.216Z,0.77
2019-04-30T02:46:43.642Z,0.53
2019-04-30T02:49:14.955Z,0.60
2019-04-30T02:51:46.265Z,0.50
2019-04-30T02:54:24.495Z,0.60
2019-04-30T02:57:13.310Z,0.57
2019-04-30T03:00:00.353Z,0.70
2019-04-30T03:02:30.727Z,0.33
2019-04-30T03:05:00.370Z,0.40
2019-04-30T03:07:30.078Z,0.53
2019-04-30T03:09:59.980Z,0.40
2019-04-30T03:12:33.103Z,0.40
2019-04-30T03:15:00.742Z,0.40
2019-04-30T03:17:51.601Z,0.30
2019-04-30T03:20:34.628Z,0.40
2019-04-30T03:22:59.442Z,0.30
2019-04-30T03:25:30.089Z,0.40
2019-04-30T03:28:00.363Z,0.30
2019-04-30T03:30:31.959Z,0.40
2019-04-30T03:33:03.080Z,0.40
2019-04-30T03:35:32.896Z,0.37
2019-04-30T03:38:02.395Z,0.30
2019-04-30T03:40:31.711Z,0.40
2019-04-30T03:43:03.054Z,0.30
2019-04-30T03:45:32.974Z,0.30
2019-04-30T03:48:02.287Z,0.30
2019-04-30T03:50:48.673Z,0.30
2019-04-30T03:53:02.777Z,0.30
2019-04-30T03:55:32.087Z,0.40
2019-04-30T03:58:01.469Z,0.30
2019-04-30T04:00:42.542Z,0.40
2019-04-30T04:03:12.198Z,0.40
2019-04-30T04:05:49.593Z,0.50
2019-04-30T04:08:43.234Z,0.37
2019-04-30T04:11:33.222Z,0.23
2019-04-30T04:14:02.631Z,0.40
2019-04-30T04:16:32.478Z,0.40
2019-04-30T04:19:03.045Z,0.40
2019-04-30T04:21:32.530Z,0.30
2019-04-30T04:24:01.905Z,0.30
2019-04-30T04:26:31.301Z,0.30
2019-04-30T04:29:00.652Z,0.30
2019-04-30T04:31:30.059Z,0.30
2019-04-30T04:34:00.083Z,0.50
2019-04-30T04:36:30.390Z,0.50
2019-04-30T04:39:00.244Z,0.30
2019-04-30T04:41:29.904Z,0.30
2019-04-30T04:44:00.118Z,0.37
2019-04-30T04:46:30.802Z,0.37
2019-04-30T04:49:00.411Z,0.40
2019-04-30T04:51:37.991Z,0.60
2019-04-30T04:54:10.153Z,0.30
2019-04-30T04:56:40.014Z,0.30
2019-04-30T04:59:10.274Z,0.40
2019-04-30T05:01:39.841Z,0.30
2019-04-30T05:04:11.856Z,0.30
2019-04-30T05:06:40.238Z,0.20
2019-04-30T05:09:09.822Z,0.40
2019-04-30T05:11:39.540Z,0.50
2019-04-30T05:14:10.933Z,0.30
2019-04-30T05:16:40.221Z,0.60
2019-04-30T05:19:09.549Z,0.30
2019-04-30T05:21:42.842Z,0.30
2019-04-30T05:24:09.985Z,0.40
2019-04-30T05:26:39.435Z,0.30
2019-04-30T05:29:09.536Z,0.30
2019-04-30T05:31:39.058Z,0.23
2019-04-30T05:34:10.152Z,0.40
2019-04-30T05:36:39.443Z,0.30
2019-04-30T05:39:08.812Z,0.20
2019-04-30T05:41:38.969Z,0.27
2019-04-30T05:44:09.235Z,0.30
2019-04-30T05:46:39.750Z,0.30
2019-04-30T05:49:09.271Z,0.50
2019-04-30T05:51:38.881Z,0.50
2019-04-30T05:54:09.125Z,0.40
2019-04-30T05:56:39.878Z,0.30
2019-04-30T05:59:09.571Z,0.30
2019-04-30T06:01:39.507Z,17.83
2019-04-30T06:04:09.619Z,0.40
2019-04-30T06:06:39.058Z,0.50
2019-04-30T06:09:33.990Z,0.40
2019-04-30T06:12:24.970Z,0.30
2019-04-30T06:14:59.757Z,0.40
2019-04-30T06:17:29.749Z,0.53
2019-04-30T06:19:59.137Z,0.30
2019-04-30T06:22:29.063Z,0.77
2019-04-30T06:24:59.458Z,0.30
2019-04-30T06:27:29.214Z,0.40
2019-04-30T06:29:58.650Z,0.40
2019-04-30T06:32:29.520Z,0.57
2019-04-30T06:34:59.809Z,0.40
2019-04-30T06:37:31.553Z,0.30
2019-04-30T06:40:00.575Z,0.73
2019-04-30T06:42:29.897Z,0.40
2019-04-30T06:44:59.612Z,0.50
2019-04-30T06:47:33.043Z,0.33
2019-04-30T06:50:01.322Z,0.50
2019-04-30T06:52:30.883Z,0.37
2019-04-30T06:55:00.184Z,0.20
2019-04-30T06:57:29.617Z,0.30
2019-04-30T06:59:59.633Z,0.33
2019-04-30T07:02:30.929Z,0.30
2019-04-30T07:05:00.628Z,0.20
2019-04-30T07:07:38.459Z,0.30
2019-04-30T07:10:12.095Z,0.20
2019-04-30T07:12:55.007Z,0.40
2019-04-30T07:15:24.441Z,0.30
2019-04-30T07:17:53.757Z,0.30
2019-04-30T07:20:23.207Z,0.30
2019-04-30T07:23:00.154Z,0.30
2019-04-30T07:25:23.631Z,0.30
2019-04-30T07:27:53.057Z,0.33
2019-04-30T07:30:22.439Z,0.30
2019-04-30T07:32:51.860Z,0.30
2019-04-30T07:35:21.185Z,0.30
2019-04-30T07:37:54.523Z,0.30
2019-04-30T07:40:21.534Z,0.47
2019-04-30T07:42:50.885Z,0.37
2019-04-30T07:45:25.114Z,0.30
2019-04-30T07:47:51.310Z,0.40
2019-04-30T07:50:22.037Z,0.30
2019-04-30T07:53:01.965Z,0.40
2019-04-30T07:55:22.979Z,0.30
2019-04-30T07:57:52.312Z,0.43
2019-04-30T08:00:21.672Z,0.30
2019-04-30T08:03:04.133Z,1.40
2019-04-30T08:05:40.199Z,0.53
2019-04-30T08:08:20.918Z,1.37
2019-04-30T08:10:40.390Z,0.30
2019-04-30T08:13:13.998Z,0.40
2019-04-30T08:15:42.349Z,0.40
2019-04-30T08:18:11.785Z,0.30
2019-04-30T08:20:41.106Z,0.37
2019-04-30T08:23:20.232Z,0.40
2019-04-30T08:25:41.514Z,0.40
2019-04-30T08:28:10.866Z,0.43
2019-04-30T08:30:40.222Z,0.30
2019-04-30T08:33:09.600Z,0.40
2019-04-30T08:35:39.753Z,0.47
2019-04-30T08:38:10.825Z,0.60
2019-04-30T08:40:53.124Z,0.40
2019-04-30T08:43:11.367Z,0.30
2019-04-30T08:45:40.821Z,0.30
2019-04-30T08:48:10.194Z,0.30
2019-04-30T08:50:40.165Z,0.30
2019-04-30T08:53:10.987Z,0.40
2019-04-30T08:55:40.736Z,0.30
2019-04-30T08:58:14.893Z,0.30
2019-04-30T09:00:41.164Z,0.20
2019-04-30T09:03:10.487Z,0.30
2019-04-30T09:05:58.940Z,0.30
2019-04-30T09:08:29.450Z,0.30
2019-04-30T09:10:59.514Z,0.40
2019-04-30T09:13:29.111Z,0.40
2019-04-30T09:15:59.318Z,0.50
2019-04-30T09:18:29.272Z,0.20
2019-04-30T09:21:06.096Z,0.50
2019-04-30T09:23:42.968Z,0.30
2019-04-30T09:26:00.993Z,1.17
2019-04-30T09:28:30.453Z,0.43
2019-04-30T09:30:59.802Z,0.47
2019-04-30T09:33:29.458Z,0.40
2019-04-30T09:35:59.539Z,0.30
2019-04-30T09:38:29.155Z,0.20
2019-04-30T09:40:59.406Z,0.30
2019-04-30T09:43:29.066Z,0.40
2019-04-30T09:45:59.292Z,0.30
2019-04-30T09:48:30.618Z,1.23
2019-04-30T09:51:01.226Z,0.40
2019-04-30T09:53:31.646Z,0.30
2019-04-30T09:56:01.329Z,0.37
2019-04-30T09:58:30.696Z,0.40
2019-04-30T10:01:00.076Z,0.40
2019-04-30T10:03:30.649Z,0.40
2019-04-30T10:06:00.450Z,0.30
2019-04-30T10:08:30.626Z,0.30
2019-04-30T10:11:31.613Z,0.30
2019-04-30T10:14:02.881Z,0.77
2019-04-30T10:16:57.207Z,0.70
2019-04-30T10:19:26.625Z,0.37
2019-04-30T10:21:55.971Z,0.40
2019-04-30T10:24:25.269Z,0.40
2019-04-30T10:26:54.665Z,0.40
2019-04-30T10:29:24.126Z,0.33
2019-04-30T10:31:53.459Z,0.30
2019-04-30T10:34:22.760Z,0.53
2019-04-30T10:36:52.349Z,0.30
2019-04-30T10:39:21.919Z,5.93
2019-04-30T10:41:51.329Z,0.30
2019-04-30T10:44:20.653Z,0.73
2019-04-30T10:46:50.001Z,0.50
2019-04-30T10:49:19.476Z,0.40
2019-04-30T10:51:48.898Z,0.40
2019-04-30T10:54:25.766Z,0.50
2019-04-30T10:56:51.447Z,0.40
2019-04-30T10:59:20.399Z,0.30
2019-04-30T11:01:49.805Z,0.40
2019-04-30T11:04:20.306Z,0.40
2019-04-30T11:06:49.719Z,0.40
2019-04-30T11:09:19.085Z,0.50
2019-04-30T11:11:49.689Z,0.40
2019-04-30T11:14:20.129Z,1.20
2019-04-30T11:16:51.495Z,0.40
2019-04-30T11:19:20.839Z,0.40
2019-04-30T11:21:50.590Z,0.43
2019-04-30T11:24:20.319Z,0.40
2019-04-30T11:26:50.622Z,0.50
2019-04-30T11:29:22.929Z,0.83
2019-04-30T11:31:57.474Z,1.60
2019-04-30T11:34:28.272Z,0.60
2019-04-30T11:36:57.877Z,0.97
2019-04-30T11:39:29.798Z,1.13
2019-04-30T11:41:59.109Z,4.07
2019-04-30T11:44:35.993Z,1.07
2019-04-30T11:47:25.701Z,0.77
2019-04-30T11:49:55.502Z,0.37
2019-04-30T11:52:25.047Z,0.43
2019-04-30T11:54:54.810Z,1.30
2019-04-30T11:57:24.381Z,1.13
2019-04-30T11:59:54.006Z,1.03
2019-04-30T12:02:30.929Z,0.60
2019-04-30T12:05:00.361Z,0.67
2019-04-30T12:07:42.264Z,1.10
2019-04-30T12:10:40.101Z,1.60
2019-04-30T12:13:27.459Z,1.10
2019-04-30T12:15:58.937Z,1.43
2019-04-30T12:18:28.924Z,0.97
2019-04-30T12:20:58.367Z,1.10
2019-04-30T12:23:27.782Z,1.20
2019-04-30T12:25:59.458Z,0.90
2019-04-30T12:28:29.669Z,0.40
2019-04-30T12:30:59.342Z,0.97
2019-04-30T12:33:28.764Z,0.97
2019-04-30T12:35:59.564Z,0.60
2019-04-30T12:38:29.875Z,0.53
2019-04-30T12:40:59.433Z,1.43
2019-04-30T12:43:28.823Z,0.90
2019-04-30T12:46:04.899Z,1.70
2019-04-30T12:48:49.441Z,0.93
2019-04-30T12:51:30.575Z,0.80
2019-04-30T12:54:06.982Z,1.33
2019-04-30T12:56:55.265Z,3.27
2019-04-30T12:59:24.608Z,2.80
2019-04-30T13:01:53.930Z,1.97
2019-04-30T13:04:23.278Z,1.93
2019-04-30T13:06:53.047Z,2.00
2019-04-30T13:09:23.156Z,2.10
2019-04-30T13:11:53.327Z,1.43
2019-04-30T13:14:23.472Z,3.87
2019-04-30T13:16:53.262Z,4.47
2019-04-30T13:19:22.593Z,2.47
2019-04-30T13:21:51.947Z,1.90
2019-04-30T13:24:21.372Z,3.13
2019-04-30T13:26:50.726Z,2.37
2019-04-30T13:29:26.846Z,5.43
2019-04-30T13:31:56.218Z,7.73
2019-04-30T13:34:45.158Z,22.07
2019-04-30T13:37:14.595Z,8.47
2019-04-30T13:39:54.537Z,4.33
2019-04-30T13:42:39.642Z,3.40
2019-04-30T13:45:09.055Z,3.73
2019-04-30T13:47:39.064Z,3.33
2019-04-30T13:50:09.486Z,3.17
2019-04-30T13:52:39.038Z,2.20
2019-04-30T13:55:10.746Z,3.00
2019-04-30T13:57:39.696Z,2.27
2019-04-30T14:00:12.292Z,2.07
2019-04-30T14:02:45.905Z,1.80
2019-04-30T14:05:16.734Z,3.77
2019-04-30T14:08:11.028Z,6.23
2019-04-30T14:10:42.663Z,2.30
2019-04-30T14:13:12.369Z,2.53
2019-04-30T14:15:42.118Z,3.43
2019-04-30T14:18:11.486Z,2.20
2019-04-30T14:20:40.858Z,7.67
2019-04-30T14:23:10.688Z,4.60
2019-04-30T14:25:40.231Z,2.60
2019-04-30T14:28:09.674Z,3.80
2019-04-30T14:30:39.320Z,3.87
2019-04-30T14:33:09.467Z,2.30
2019-04-30T14:35:39.088Z,3.97
2019-04-30T14:38:09.070Z,3.03
2019-04-30T14:40:40.518Z,6.77
2019-04-30T14:43:19.864Z,3.10
2019-04-30T14:46:07.770Z,3.30
2019-04-30T14:48:44.145Z,4.07
2019-04-30T14:51:14.154Z,4.40
2019-04-30T14:53:50.230Z,3.93
2019-04-30T14:56:39.326Z,4.40
2019-04-30T14:59:30.330Z,3.73
2019-04-30T15:02:16.481Z,3.17
2019-04-30T15:04:45.909Z,3.73
2019-04-30T15:07:15.269Z,3.63
2019-04-30T15:09:44.606Z,4.87
2019-04-30T15:12:14.026Z,6.50
2019-04-30T15:14:43.461Z,3.90
2019-04-30T15:17:12.848Z,3.83
2019-04-30T15:19:42.280Z,3.47
2019-04-30T15:22:11.667Z,4.63
2019-04-30T15:24:41.046Z,3.50
2019-04-30T15:27:10.378Z,2.73
2019-04-30T15:29:39.679Z,3.90
2019-04-30T15:32:09.047Z,5.40
2019-04-30T15:34:40.832Z,3.43
2019-04-30T15:37:19.248Z,3.90
2019-04-30T15:39:44.732Z,3.47
2019-04-30T15:42:15.211Z,2.60
2019-04-30T15:44:45.935Z,3.37
2019-04-30T15:47:16.040Z,2.60
2019-04-30T15:49:45.418Z,2.93
2019-04-30T15:52:14.786Z,2.13
2019-04-30T15:54:44.113Z,3.20
2019-04-30T15:57:13.473Z,3.57
2019-04-30T15:59:43.642Z,2.33
2019-04-30T16:02:24.977Z,1.73
2019-04-30T16:05:22.629Z,2.07
2019-04-30T16:08:10.946Z,4.90
2019-04-30T16:11:07.227Z,2.93
2019-04-30T16:14:01.230Z,2.37
2019-04-30T16:16:34.473Z,2.47
2019-04-30T16:19:04.100Z,2.23
2019-04-30T16:21:33.566Z,2.23
2019-04-30T16:24:02.989Z,2.30
2019-04-30T16:26:32.426Z,1.67
2019-04-30T16:29:02.907Z,1.53
2019-04-30T16:31:32.276Z,1.33
2019-04-30T16:34:02.366Z,1.53
2019-04-30T16:36:31.730Z,1.97
2019-04-30T16:39:01.027Z,2.67
2019-04-30T16:41:31.974Z,1.63
2019-04-30T16:44:01.502Z,2.00
2019-04-30T16:46:31.142Z,2.67
2019-04-30T16:49:00.666Z,2.33
2019-04-30T16:51:30.058Z,3.30
2019-04-30T16:53:59.391Z,2.43
2019-04-30T16:56:28.810Z,3.40
2019-04-30T16:59:02.473Z,2.87
2019-04-30T17:01:32.914Z,3.70
2019-04-30T17:04:24.364Z,8.17
2019-04-30T17:07:18.970Z,3.27
2019-04-30T17:10:04.961Z,2.67
2019-04-30T17:12:43.024Z,2.47
2019-04-30T17:15:19.294Z,1.80
2019-04-30T17:17:49.731Z,4.60
2019-04-30T17:20:20.872Z,6.23
2019-04-30T17:22:50.700Z,2.33
2019-04-30T17:25:20.691Z,6.17
2019-04-30T17:27:50.096Z,3.13
2019-04-30T17:30:19.489Z,3.10
2019-04-30T17:32:49.876Z,3.93
2019-04-30T17:35:19.710Z,1.90
2019-04-30T17:37:49.184Z,2.47
2019-04-30T17:40:19.220Z,3.57
2019-04-30T17:42:48.751Z,2.17
2019-04-30T17:45:19.538Z,3.20
2019-04-30T17:47:49.072Z,3.23
2019-04-30T17:50:18.856Z,1.40
2019-04-30T17:52:48.427Z,2.23
2019-04-30T17:55:19.470Z,1.67
2019-04-30T17:57:49.119Z,3.37
2019-04-30T18:00:22.270Z,1.87
2019-04-30T18:02:50.529Z,1.70
2019-04-30T18:05:19.843Z,1.90
2019-04-30T18:07:49.874Z,2.00
2019-04-30T18:10:19.892Z,2.37
2019-04-30T18:12:49.310Z,2.80
2019-04-30T18:15:22.645Z,2.57
2019-04-30T18:18:30.604Z,1.80
2019-04-30T18:21:19.099Z,2.03
2019-04-30T18:24:05.974Z,1.53
2019-04-30T18:26:38.150Z,3.87
2019-04-30T18:29:07.555Z,4.63
2019-04-30T18:31:36.992Z,8.80
2019-04-30T18:34:06.410Z,3.97
2019-04-30T18:36:35.783Z,3.23
2019-04-30T18:39:10.240Z,7.07
2019-04-30T18:41:39.665Z,6.03
2019-04-30T18:44:09.496Z,3.87
2019-04-30T18:46:39.149Z,5.27
2019-04-30T18:49:10.285Z,6.50
2019-04-30T18:51:42.648Z,4.90
2019-04-30T18:54:10.821Z,6.87
2019-04-30T18:56:40.312Z,6.33
2019-04-30T18:59:09.629Z,6.17
2019-04-30T19:01:39.027Z,5.07
2019-04-30T19:04:09.235Z,5.57
2019-04-30T19:06:38.780Z,5.80
2019-04-30T19:09:29.505Z,5.70
2019-04-30T19:12:28.947Z,5.50
2019-04-30T19:15:40.934Z,5.70
2019-04-30T19:18:24.285Z,9.87
2019-04-30T19:20:54.956Z,3.73
2019-04-30T19:23:24.329Z,8.80
2019-04-30T19:25:53.686Z,6.67
2019-04-30T19:28:23.092Z,5.07
2019-04-30T19:30:57.895Z,5.23
2019-04-30T19:33:23.850Z,4.50
2019-04-30T19:35:53.265Z,3.90
2019-04-30T19:38:22.604Z,4.97
2019-04-30T19:40:51.916Z,4.70
2019-04-30T19:43:21.321Z,8.43
2019-04-30T19:45:51.205Z,5.07
2019-04-30T19:48:20.938Z,5.00
2019-04-30T19:50:50.286Z,4.10
2019-04-30T19:53:22.023Z,4.90
2019-04-30T19:55:50.810Z,5.60
2019-04-30T19:58:29.518Z,5.30
2019-04-30T20:00:51.268Z,8.87
2019-04-30T20:03:20.723Z,6.07
2019-04-30T20:05:50.195Z,5.00
2019-04-30T20:08:19.914Z,5.73
2019-04-30T20:10:49.739Z,4.87
2019-04-30T20:13:31.357Z,5.37
2019-04-30T20:15:50.527Z,5.07
2019-04-30T20:18:19.973Z,7.30
2019-04-30T20:20:51.957Z,5.77
2019-04-30T20:23:21.663Z,6.07
2019-04-30T20:25:51.146Z,7.40
2019-04-30T20:28:20.590Z,5.10
2019-04-30T20:30:50.049Z,5.20
2019-04-30T20:33:19.474Z,8.87
2019-04-30T20:35:48.983Z,6.00
2019-04-30T20:38:31.659Z,7.30
2019-04-30T20:41:03.478Z,3.77
2019-04-30T20:43:33.135Z,4.80
2019-04-30T20:46:02.919Z,6.27
2019-04-30T20:48:32.219Z,5.60
2019-04-30T20:51:09.162Z,5.33
2019-04-30T20:53:39.046Z,5.73
2019-04-30T20:56:09.835Z,4.73
2019-04-30T20:58:54.611Z,4.93
2019-04-30T21:01:10.370Z,4.77
2019-04-30T21:03:39.806Z,5.87
2019-04-30T21:06:09.195Z,4.03
2019-04-30T21:08:38.665Z,5.10
2019-04-30T21:11:09.371Z,7.17
2019-04-30T21:13:39.345Z,3.93
2019-04-30T21:16:08.734Z,4.17
2019-04-30T21:18:39.163Z,5.77
2019-04-30T21:21:08.766Z,5.17
2019-04-30T21:23:39.245Z,4.97
2019-04-30T21:26:08.854Z,4.17
2019-04-30T21:28:39.334Z,4.90
2019-04-30T21:31:26.564Z,9.27
2019-04-30T21:34:00.651Z,14.33
2019-04-30T21:36:30.223Z,4.30
2019-04-30T21:38:59.554Z,5.93
2019-04-30T21:41:29.694Z,4.53
2019-04-30T21:43:59.355Z,7.40
2019-04-30T21:46:29.294Z,7.60
2019-04-30T21:48:58.998Z,5.43
2019-04-30T21:51:28.350Z,8.40
2019-04-30T21:53:57.770Z,4.87
2019-04-30T21:56:27.161Z,8.03
2019-04-30T21:58:56.561Z,7.73
2019-04-30T22:01:26.592Z,6.57
2019-04-30T22:03:55.975Z,9.00
2019-04-30T22:06:25.349Z,5.10
2019-04-30T22:08:54.757Z,5.43
2019-04-30T22:11:24.094Z,4.80
2019-04-30T22:13:53.462Z,6.13
2019-04-30T22:16:22.770Z,7.63
2019-04-30T22:18:52.509Z,4.63
2019-04-30T22:21:21.838Z,5.30
2019-04-30T22:23:51.230Z,5.53
2019-04-30T22:26:20.530Z,7.23
2019-04-30T22:28:49.897Z,4.83
2019-04-30T22:31:19.731Z,7.10
2019-04-30T22:33:49.445Z,6.40
2019-04-30T22:36:32.518Z,6.40
2019-04-30T22:39:16.444Z,6.70
2019-04-30T22:41:45.784Z,6.03
2019-04-30T22:44:15.118Z,4.17
2019-04-30T22:46:44.445Z,4.93
2019-04-30T22:49:13.830Z,5.13
2019-04-30T22:51:43.203Z,4.80
2019-04-30T22:54:12.554Z,4.90
2019-04-30T22:56:41.976Z,5.57
2019-04-30T22:59:11.354Z,6.67
2019-04-30T23:02:15.062Z,5.07
2019-04-30T23:04:45.920Z,5.30
2019-04-30T23:07:15.370Z,5.03
2019-04-30T23:09:44.688Z,7.97
2019-04-30T23:12:14.218Z,7.37
2019-04-30T23:14:43.551Z,5.47
2019-04-30T23:17:12.944Z,5.20
2019-04-30T23:19:49.151Z,6.23
2019-04-30T23:22:13.438Z,4.40
2019-04-30T23:24:42.778Z,5.47
2019-04-30T23:27:12.218Z,8.23
2019-04-30T23:29:41.569Z,4.30
2019-04-30T23:32:13.503Z,5.10
2019-04-30T23:34:42.105Z,3.73
2019-04-30T23:37:11.645Z,5.73
2019-04-30T23:39:40.979Z,4.43
2019-04-30T23:42:10.372Z,5.50
2019-04-30T23:44:39.718Z,4.33
2019-04-30T23:47:09.047Z,4.93
2019-04-30T23:49:38.418Z,6.80
2019-04-30T23:52:07.760Z,5.23
2019-04-30T23:54:37.189Z,5.03
2019-04-30T23:57:06.593Z,6.80
2019-04-30T23:59:36.006Z,4.93
